createdAt,value
2023-01-07T00:01:28.633Z,98747.25
2023-01-07T00:03:57.486Z,98740.47
2023-01-07T00:06:27.221Z,98741.50
2023-01-07T00:08:55.984Z,98749.78
2023-01-07T00:11:31.690Z,98756.44
2023-01-07T00:14:00.177Z,98768.97
2023-01-07T00:16:30.683Z,98776.03
2023-01-07T00:18:59.501Z,98780.38
2023-01-07T00:21:28.175Z,98775.69
2023-01-07T00:23:57.082Z,98776.94
2023-01-07T00:26:25.929Z,98768.25
2023-01-07T00:28:54.324Z,98770.03
2023-01-07T00:31:27.258Z,98769.41
2023-01-07T00:33:54.442Z,98782.69
2023-01-07T00:36:23.250Z,98781.75
2023-01-07T00:39:16.501Z,98785.59
2023-01-07T00:42:02.943Z,98778.09
2023-01-07T00:44:30.797Z,98779.53
2023-01-07T00:46:58.938Z,98779.00
2023-01-07T00:49:26.679Z,98781.09
2023-01-07T00:51:53.983Z,98785.19
2023-01-07T00:54:21.506Z,98777.75
2023-01-07T00:56:48.433Z,98769.50
2023-01-07T00:59:15.707Z,98773.91
2023-01-07T01:01:43.556Z,98783.50
2023-01-07T01:04:10.503Z,98784.75
2023-01-07T01:06:37.407Z,98796.88
2023-01-07T01:09:04.404Z,98792.38
2023-01-07T01:11:31.343Z,98793.00
2023-01-07T01:13:58.258Z,98789.44
2023-01-07T01:16:25.314Z,98788.63
2023-01-07T01:18:52.337Z,98795.25
2023-01-07T01:21:19.448Z,98794.84
2023-01-07T01:23:46.470Z,98792.25
2023-01-07T01:26:16.054Z,98793.84
2023-01-07T01:28:44.001Z,98795.25
2023-01-07T01:31:13.116Z,98790.16
2023-01-07T01:33:55.223Z,98797.16
2023-01-07T01:36:23.419Z,98798.63
2023-01-07T01:38:51.822Z,98789.59
2023-01-07T01:41:18.870Z,98777.72
2023-01-07T01:43:48.443Z,98770.78
2023-01-07T01:46:20.994Z,98763.66
2023-01-07T01:48:53.663Z,98773.09
2023-01-07T01:51:25.797Z,98771.78
2023-01-07T01:53:54.100Z,98765.38
2023-01-07T01:56:27.833Z,98769.09
2023-01-07T01:59:01.305Z,98764.59
2023-01-07T02:01:29.197Z,98769.09
2023-01-07T02:03:58.182Z,98764.72
2023-01-07T02:06:28.785Z,98758.97
2023-01-07T02:08:56.068Z,98764.13
2023-01-07T02:11:47.108Z,98760.28
2023-01-07T02:14:25.777Z,98763.47
2023-01-07T02:17:00.158Z,98757.59
2023-01-07T02:19:42.991Z,98767.81
2023-01-07T02:22:30.753Z,98767.88
2023-01-07T02:25:22.120Z,98764.91
2023-01-07T02:28:09.375Z,98767.09
2023-01-07T02:30:46.279Z,98771.50
2023-01-07T02:33:47.817Z,98765.06
2023-01-07T02:36:23.535Z,98768.16
2023-01-07T02:39:07.039Z,98780.25
2023-01-07T02:41:41.773Z,98773.53
2023-01-07T02:44:21.792Z,98767.03
2023-01-07T02:47:00.295Z,98759.63
2023-01-07T02:49:27.183Z,98751.09
2023-01-07T02:51:54.140Z,98748.00
2023-01-07T02:54:26.388Z,98745.38
2023-01-07T02:57:19.996Z,98748.84
2023-01-07T03:00:08.732Z,98750.34
2023-01-07T03:02:49.718Z,98751.00
2023-01-07T03:05:36.103Z,98737.16
2023-01-07T03:08:24.796Z,98740.50
2023-01-07T03:11:00.445Z,98750.28
2023-01-07T03:13:58.975Z,98752.72
2023-01-07T03:16:26.629Z,98745.81
2023-01-07T03:19:01.044Z,98746.84
2023-01-07T03:21:31.565Z,98736.41
2023-01-07T03:24:01.235Z,98734.13
2023-01-07T03:26:39.248Z,98743.13
2023-01-07T03:29:07.460Z,98749.78
2023-01-07T03:31:38.644Z,98754.81
2023-01-07T03:34:10.393Z,98751.00
2023-01-07T03:36:43.206Z,98755.84
2023-01-07T03:39:12.543Z,98748.84
2023-01-07T03:41:59.371Z,98748.00
2023-01-07T03:44:26.641Z,98748.88
2023-01-07T03:46:54.396Z,98747.84
2023-01-07T03:49:21.434Z,98742.28
2023-01-07T03:51:49.630Z,98750.75
2023-01-07T03:54:17.192Z,98754.09
2023-01-07T03:56:44.107Z,98752.81
2023-01-07T03:59:11.240Z,98758.84
2023-01-07T04:01:38.507Z,98759.50
2023-01-07T04:04:05.971Z,98745.06
2023-01-07T04:06:33.013Z,98755.31
2023-01-07T04:08:59.998Z,98752.16
2023-01-07T04:11:27.408Z,98746.75
2023-01-07T04:13:54.852Z,98749.28
2023-01-07T04:16:22.035Z,98747.88
2023-01-07T04:18:48.932Z,98742.50
2023-01-07T04:21:15.847Z,98753.81
2023-01-07T04:23:42.815Z,98753.38
2023-01-07T04:26:10.309Z,98753.56
2023-01-07T04:28:38.375Z,98756.69
2023-01-07T04:31:05.771Z,98753.09
2023-01-07T04:33:36.053Z,98751.88
2023-01-07T04:36:03.867Z,98754.31
2023-01-07T04:38:31.118Z,98765.66
2023-01-07T04:40:58.411Z,98759.22
2023-01-07T04:43:25.373Z,98755.78
2023-01-07T04:45:52.284Z,98753.66
2023-01-07T04:48:19.358Z,98759.88
2023-01-07T04:50:49.307Z,98761.47
2023-01-07T04:53:17.062Z,98763.22
2023-01-07T04:55:46.611Z,98755.06
2023-01-07T04:58:14.605Z,98752.53
2023-01-07T05:00:41.609Z,98751.31
2023-01-07T05:03:09.594Z,98748.16
2023-01-07T05:05:37.500Z,98751.25
2023-01-07T05:08:04.709Z,98749.47
2023-01-07T05:10:33.033Z,98746.97
2023-01-07T05:13:01.228Z,98745.47
2023-01-07T05:15:28.114Z,98751.41
2023-01-07T05:17:55.987Z,98747.88
2023-01-07T05:20:24.915Z,98748.81
2023-01-07T05:22:52.465Z,98755.88
2023-01-07T05:25:19.976Z,98759.97
2023-01-07T05:27:47.468Z,98757.91
2023-01-07T05:30:14.888Z,98752.00
2023-01-07T05:32:41.938Z,98751.59
2023-01-07T05:35:09.064Z,98752.44
2023-01-07T05:37:36.533Z,98758.41
2023-01-07T05:40:04.597Z,98752.00
2023-01-07T05:42:31.565Z,98756.91
2023-01-07T05:44:59.769Z,98747.88
2023-01-07T05:47:26.707Z,98746.38
2023-01-07T05:49:53.630Z,98753.84
2023-01-07T05:52:20.589Z,98753.28
2023-01-07T05:54:47.477Z,98747.03
2023-01-07T05:57:14.474Z,98751.25
2023-01-07T05:59:41.497Z,98759.06
2023-01-07T06:02:08.550Z,98757.84
2023-01-07T06:04:35.544Z,98768.16
2023-01-07T06:07:02.624Z,98768.00
2023-01-07T06:09:30.143Z,98777.28
2023-01-07T06:11:57.417Z,98781.75
2023-01-07T06:14:24.306Z,98784.66
2023-01-07T06:16:51.156Z,98782.06
2023-01-07T06:19:18.181Z,98785.59
2023-01-07T06:21:45.110Z,98780.56
2023-01-07T06:24:12.149Z,98789.06
2023-01-07T06:26:39.100Z,98784.28
2023-01-07T06:29:06.005Z,98782.41
2023-01-07T06:31:33.621Z,98780.56
2023-01-07T06:34:00.585Z,98776.44
2023-01-07T06:36:27.581Z,98786.16
2023-01-07T06:38:54.587Z,98780.88
2023-01-07T06:41:21.443Z,98774.34
2023-01-07T06:43:48.315Z,98771.97
2023-01-07T06:46:15.376Z,98772.16
2023-01-07T06:48:42.376Z,98775.72
2023-01-07T06:51:09.249Z,98773.00
2023-01-07T06:53:36.118Z,98774.47
2023-01-07T06:56:03.083Z,98778.88
2023-01-07T06:58:29.998Z,98779.59
2023-01-07T07:00:56.998Z,98779.41
2023-01-07T07:03:23.956Z,98783.81
2023-01-07T07:05:50.879Z,98785.72
2023-01-07T07:08:17.828Z,98785.59
2023-01-07T07:10:44.717Z,98788.56
2023-01-07T07:13:12.177Z,98789.81
2023-01-07T07:15:39.224Z,98784.69
2023-01-07T07:18:06.272Z,98787.50
2023-01-07T07:20:33.515Z,98783.13
2023-01-07T07:23:02.126Z,98781.97
2023-01-07T07:25:29.239Z,98782.91
2023-01-07T07:27:56.115Z,98778.19
2023-01-07T07:30:22.978Z,98777.16
2023-01-07T07:33:09.867Z,98769.09
2023-01-07T07:35:36.742Z,98777.56
2023-01-07T07:38:03.966Z,98779.53
2023-01-07T07:40:30.975Z,98779.97
2023-01-07T07:43:11.556Z,98781.13
2023-01-07T07:45:40.860Z,98766.09
2023-01-07T07:48:08.936Z,98766.97
2023-01-07T07:50:36.703Z,98775.34
2023-01-07T07:53:04.091Z,98767.28
2023-01-07T07:55:31.542Z,98770.34
2023-01-07T07:57:58.649Z,98765.69
2023-01-07T08:00:25.769Z,98767.69
2023-01-07T08:02:52.755Z,98764.88
2023-01-07T08:05:19.712Z,98767.97
2023-01-07T08:07:46.582Z,98770.78
2023-01-07T08:10:13.518Z,98771.75
2023-01-07T08:12:40.535Z,98777.88
2023-01-07T08:15:08.585Z,98778.31
2023-01-07T08:17:39.156Z,98781.88
2023-01-07T08:20:07.598Z,98777.31
2023-01-07T08:22:35.219Z,98769.72
2023-01-07T08:25:02.411Z,98769.84
2023-01-07T08:27:29.791Z,98771.66
2023-01-07T08:29:57.030Z,98772.44
2023-01-07T08:32:24.181Z,98779.59
2023-01-07T08:34:51.091Z,98775.56
2023-01-07T08:37:18.052Z,98778.19
2023-01-07T08:39:44.958Z,98779.84
2023-01-07T08:42:11.813Z,98779.34
2023-01-07T08:44:38.850Z,98778.28
2023-01-07T08:47:05.852Z,98769.94
2023-01-07T08:49:32.933Z,98764.09
2023-01-07T08:51:59.834Z,98752.34
2023-01-07T08:54:26.848Z,98751.75
2023-01-07T08:56:53.909Z,98754.16
2023-01-07T08:59:20.771Z,98753.66
2023-01-07T09:01:47.861Z,98743.44
2023-01-07T09:04:14.855Z,98738.41
2023-01-07T09:06:41.815Z,98732.09
2023-01-07T09:09:08.878Z,98723.50
2023-01-07T09:11:35.920Z,98725.03
2023-01-07T09:14:03.040Z,98729.09
2023-01-07T09:16:30.118Z,98730.78
2023-01-07T09:18:57.049Z,98730.69
2023-01-07T09:21:23.936Z,98723.97
2023-01-07T09:23:50.804Z,98709.22
2023-01-07T09:26:17.768Z,98714.09
2023-01-07T09:28:44.680Z,98715.78
2023-01-07T09:31:11.698Z,98715.66
2023-01-07T09:33:40.332Z,98704.31
2023-01-07T09:36:07.430Z,98708.47
2023-01-07T09:38:34.417Z,98692.44
2023-01-07T09:41:01.411Z,98696.53
2023-01-07T09:43:59.949Z,98686.97
2023-01-07T10:17:48.422Z,98660.38
2023-01-07T10:20:15.415Z,98657.25
2023-01-07T10:22:55.215Z,98656.78
2023-01-07T10:25:34.124Z,98650.94
2023-01-07T10:28:06.557Z,98647.75
2023-01-07T10:30:41.695Z,98635.22
2023-01-07T10:33:25.521Z,98641.53
2023-01-07T10:36:01.129Z,98636.28
2023-01-07T10:38:33.214Z,98640.69
2023-01-07T10:41:08.198Z,98626.75
2023-01-07T10:44:11.176Z,98626.25
2023-01-07T10:46:58.041Z,98625.78
2023-01-07T10:49:58.527Z,98629.13
2023-01-07T10:52:36.107Z,98632.22
2023-01-07T10:55:38.454Z,98626.75
2023-01-07T10:58:09.404Z,98624.13
2023-01-07T11:00:36.484Z,98618.03
2023-01-07T11:03:03.513Z,98611.69
2023-01-07T11:05:37.752Z,98613.47
2023-01-07T11:08:12.674Z,98609.09
2023-01-07T11:10:40.157Z,98603.50
2023-01-07T11:13:15.039Z,98607.28
2023-01-07T11:15:48.305Z,98595.16
2023-01-07T11:18:30.492Z,98592.00
2023-01-07T11:20:59.913Z,98588.59
2023-01-07T11:23:31.544Z,98586.13
2023-01-07T11:26:24.989Z,98581.75
2023-01-07T11:28:57.969Z,98585.50
2023-01-07T11:31:58.480Z,98592.28
2023-01-07T11:34:50.671Z,98594.91
2023-01-07T11:37:36.160Z,98601.13
2023-01-07T11:40:25.774Z,98593.75
2023-01-07T11:42:54.752Z,98594.59
2023-01-07T11:45:27.969Z,98581.00
2023-01-07T11:48:26.834Z,98581.31
2023-01-07T11:50:53.684Z,98587.56
2023-01-07T11:53:35.547Z,98583.03
2023-01-07T11:56:06.788Z,98581.53
2023-01-07T11:58:42.546Z,98580.38
2023-01-07T12:01:10.253Z,98579.44
2023-01-07T12:03:45.088Z,98570.84
2023-01-07T12:06:12.116Z,98572.06
2023-01-07T12:08:49.700Z,98572.75
2023-01-07T12:11:17.518Z,98562.75
2023-01-07T12:13:49.697Z,98565.38
2023-01-07T12:16:17.927Z,98563.44
2023-01-07T12:19:37.717Z,98557.91
2023-01-07T12:22:26.997Z,98559.88
2023-01-07T12:24:56.971Z,98560.00
2023-01-07T12:27:51.599Z,98552.25
2023-01-07T12:30:37.306Z,98546.75
2023-01-07T12:33:21.637Z,98543.72
2023-01-07T12:35:49.178Z,98552.00
2023-01-07T12:38:34.084Z,98548.47
2023-01-07T12:41:05.791Z,98555.31
2023-01-07T12:43:57.711Z,98560.56
2023-01-07T12:46:28.638Z,98554.81
2023-01-07T12:49:02.694Z,98546.94
2023-01-07T12:52:08.124Z,98545.28
2023-01-07T12:54:59.294Z,98547.88
2023-01-07T12:57:34.408Z,98550.66
2023-01-07T13:00:21.560Z,98553.50
2023-01-07T13:02:51.976Z,98554.09
2023-01-07T13:05:27.976Z,98554.88
2023-01-07T13:08:15.392Z,98553.53
2023-01-07T13:10:48.612Z,98546.81
2023-01-07T13:13:28.161Z,98542.91
2023-01-07T13:15:55.235Z,98550.78
2023-01-07T13:18:22.237Z,98555.66
2023-01-07T13:21:02.529Z,98550.47
2023-01-07T13:23:53.827Z,98555.16
2023-01-07T13:27:02.878Z,98550.47
2023-01-07T13:29:54.092Z,98559.25
2023-01-07T13:32:28.637Z,98562.25
2023-01-07T13:35:01.763Z,98560.22
2023-01-07T13:37:54.486Z,98560.94
2023-01-07T13:40:37.123Z,98560.78
2023-01-07T13:43:10.040Z,98566.41
2023-01-07T13:45:40.644Z,98561.75
2023-01-07T13:48:23.807Z,98555.47
2023-01-07T13:51:06.193Z,98562.69
2023-01-07T13:53:46.925Z,98567.31
2023-01-07T13:56:17.055Z,98564.38
2023-01-07T13:58:48.987Z,98565.44
2023-01-07T14:01:18.086Z,98566.53
2023-01-07T14:03:49.637Z,98571.31
2023-01-07T14:06:22.078Z,98566.69
2023-01-07T14:08:51.052Z,98567.41
2023-01-07T14:11:41.978Z,98571.63
2023-01-07T14:14:22.739Z,98573.56
2023-01-07T14:17:03.579Z,98569.06
2023-01-07T14:19:46.285Z,98570.28
2023-01-07T14:23:04.426Z,98575.31
2023-01-07T14:25:52.673Z,98571.75
2023-01-07T14:28:19.483Z,98570.34
2023-01-07T14:30:49.329Z,98576.88
2023-01-07T14:33:41.058Z,98575.44
2023-01-07T14:36:10.314Z,98571.25
2023-01-07T14:38:37.235Z,98585.63
2023-01-07T14:41:18.384Z,98573.94
2023-01-07T14:43:47.818Z,98574.63
2023-01-07T14:46:23.536Z,98568.91
2023-01-07T14:49:02.494Z,98574.66
2023-01-07T14:51:47.685Z,98574.50
2023-01-07T14:54:23.479Z,98577.50
2023-01-07T14:57:22.704Z,98584.75
2023-01-07T15:00:12.011Z,98584.34
2023-01-07T15:03:16.117Z,98584.13
2023-01-07T15:05:54.817Z,98587.09
2023-01-07T15:08:43.752Z,98583.16
2023-01-07T15:11:39.466Z,98583.28
2023-01-07T15:14:56.259Z,98589.81
2023-01-07T15:17:23.631Z,98591.91
2023-01-07T15:19:52.493Z,98588.78
2023-01-07T15:22:38.667Z,98596.72
2023-01-07T15:25:08.320Z,98596.59
2023-01-07T15:27:59.912Z,98597.53
2023-01-07T15:30:35.529Z,98602.63
2023-01-07T15:33:39.709Z,98606.16
2023-01-07T15:36:11.249Z,98599.50
2023-01-07T15:38:50.621Z,98609.13
2023-01-07T15:41:33.738Z,98604.38
2023-01-07T15:44:16.263Z,98605.78
2023-01-07T15:46:43.375Z,98601.56
2023-01-07T15:49:10.288Z,98606.59
2023-01-07T15:51:45.402Z,98600.72
2023-01-07T15:54:41.773Z,98615.03
2023-01-07T15:57:15.023Z,98612.00
2023-01-07T15:59:46.083Z,98611.31
2023-01-07T16:02:37.803Z,98607.75
2023-01-07T16:05:06.484Z,98616.81
2023-01-07T16:07:36.481Z,98613.09
2023-01-07T16:10:03.972Z,98615.00
2023-01-07T16:12:34.893Z,98625.78
2023-01-07T16:15:19.251Z,98615.00
2023-01-07T16:18:00.638Z,98619.84
2023-01-07T16:20:33.799Z,98617.03
2023-01-07T16:23:23.023Z,98617.59
2023-01-07T16:25:58.555Z,98613.16
2023-01-07T16:28:33.390Z,98627.50
2023-01-07T16:31:03.275Z,98624.72
2023-01-07T16:33:34.411Z,98629.72
2023-01-07T16:36:05.395Z,98637.00
2023-01-07T16:38:36.703Z,98633.63
2023-01-07T16:41:04.454Z,98643.03
2023-01-07T16:43:40.069Z,98650.91
2023-01-07T16:46:23.572Z,98641.75
2023-01-07T16:49:09.361Z,98641.91
2023-01-07T16:51:51.445Z,98649.44
2023-01-07T16:54:28.885Z,98642.09
2023-01-07T16:57:07.246Z,98650.63
2023-01-07T16:59:37.444Z,98642.84
2023-01-07T17:02:32.851Z,98649.66
2023-01-07T17:05:19.014Z,98651.13
2023-01-07T17:07:49.809Z,98645.19
2023-01-07T17:10:25.954Z,98646.22
2023-01-07T17:13:00.548Z,98639.59
2023-01-07T17:15:33.500Z,98650.84
2023-01-07T17:18:12.534Z,98655.91
2023-01-07T17:21:01.648Z,98657.94
2023-01-07T17:23:28.711Z,98660.72
2023-01-07T17:25:57.015Z,98653.56
2023-01-07T17:28:25.714Z,98664.63
2023-01-07T17:30:52.966Z,98666.75
2023-01-07T17:33:22.460Z,98664.25
2023-01-07T17:35:51.573Z,98654.38
2023-01-07T17:38:19.179Z,98658.66
2023-01-07T17:40:47.180Z,98662.88
2023-01-07T17:43:34.766Z,98656.41
2023-01-07T17:46:03.835Z,98661.91
2023-01-07T17:48:32.041Z,98658.28
2023-01-07T17:51:01.484Z,98661.22
2023-01-07T17:53:30.865Z,98671.16
2023-01-07T17:55:57.972Z,98667.75
2023-01-07T17:58:35.735Z,98668.22
2023-01-07T18:01:07.193Z,98666.56
2023-01-07T18:03:34.231Z,98664.66
2023-01-07T18:06:01.621Z,98671.66
2023-01-07T18:08:28.518Z,98675.81
2023-01-07T18:11:14.955Z,98671.16
2023-01-07T18:13:42.352Z,98673.59
2023-01-07T18:16:13.570Z,98675.78
2023-01-07T18:18:40.594Z,98680.63
2023-01-07T18:21:11.571Z,98680.88
2023-01-07T18:23:38.790Z,98682.03
2023-01-07T18:26:06.568Z,98682.06
2023-01-07T18:28:33.740Z,98684.44
2023-01-07T18:31:00.679Z,98694.53
2023-01-07T18:33:27.619Z,98687.47
2023-01-07T18:35:54.562Z,98679.91
2023-01-07T18:38:21.489Z,98687.28
2023-01-07T18:40:49.144Z,98684.97
2023-01-07T18:43:18.094Z,98678.25
2023-01-07T18:45:46.221Z,98686.16
2023-01-07T18:48:14.839Z,98680.56
2023-01-07T18:50:43.120Z,98686.34
2023-01-07T18:53:10.820Z,98689.22
2023-01-07T18:55:39.491Z,98687.84
2023-01-07T18:58:07.198Z,98694.47
2023-01-07T19:00:34.912Z,98689.22
2023-01-07T19:03:01.861Z,98683.66
2023-01-07T19:05:29.706Z,98693.44
2023-01-07T19:07:56.693Z,98701.00
2023-01-07T19:10:24.865Z,98695.75
2023-01-07T19:12:51.961Z,98684.84
2023-01-07T19:15:19.565Z,98686.84
2023-01-07T19:17:46.916Z,98691.56
2023-01-07T19:20:15.409Z,98686.38
2023-01-07T19:22:42.719Z,98686.34
2023-01-07T19:25:10.233Z,98694.41
2023-01-07T19:27:37.201Z,98687.66
2023-01-07T19:30:05.786Z,98698.13
2023-01-07T19:32:32.742Z,98699.00
2023-01-07T19:34:59.807Z,98695.25
2023-01-07T19:37:26.810Z,98700.75
2023-01-07T19:39:54.161Z,98691.72
2023-01-07T19:42:21.124Z,98695.25
2023-01-07T19:44:48.187Z,98688.44
2023-01-07T19:47:17.320Z,98692.22
2023-01-07T19:49:45.449Z,98694.97
2023-01-07T19:52:13.750Z,98693.31
2023-01-07T19:54:41.918Z,98696.25
2023-01-07T19:57:09.535Z,98694.97
2023-01-07T19:59:36.659Z,98694.97
2023-01-07T20:02:05.017Z,98697.91
2023-01-07T20:04:32.063Z,98704.94
2023-01-07T20:06:59.019Z,98695.16
2023-01-07T20:09:25.965Z,98694.66
2023-01-07T20:11:52.872Z,98694.50
2023-01-07T20:14:19.959Z,98693.84
2023-01-07T20:16:47.111Z,98698.53
2023-01-07T20:19:14.165Z,98696.13
2023-01-07T20:21:41.522Z,98690.75
2023-01-07T20:24:09.154Z,98694.19
2023-01-07T20:26:38.284Z,98699.13
2023-01-07T20:29:05.540Z,98682.50
2023-01-07T20:31:32.671Z,98682.94
2023-01-07T20:34:00.649Z,98689.28
2023-01-07T20:36:30.373Z,98676.53
2023-01-07T20:38:57.725Z,98680.78
2023-01-07T20:41:27.137Z,98670.78
2023-01-07T20:43:59.881Z,98679.66
2023-01-07T20:46:28.702Z,98673.50
2023-01-07T20:48:56.812Z,98667.88
2023-01-07T20:51:24.352Z,98667.13
2023-01-07T20:53:51.584Z,98670.41
2023-01-07T20:56:20.663Z,98670.31
2023-01-07T20:58:49.069Z,98669.22
2023-01-07T21:01:19.700Z,98660.63
2023-01-07T21:03:46.786Z,98663.31
2023-01-07T21:06:15.516Z,98659.56
2023-01-07T21:08:42.597Z,98658.59
2023-01-07T21:11:12.034Z,98655.84
2023-01-07T21:13:39.383Z,98666.09
2023-01-07T21:16:06.785Z,98662.06
2023-01-07T21:18:34.512Z,98666.09
2023-01-07T21:21:02.522Z,98666.94
2023-01-07T21:23:29.388Z,98669.16
2023-01-07T21:25:56.291Z,98672.53
2023-01-07T21:28:23.187Z,98677.66
2023-01-07T21:30:50.265Z,98670.41
2023-01-07T21:33:17.272Z,98667.53
2023-01-07T21:35:44.188Z,98668.59
2023-01-07T21:38:11.092Z,98668.28
2023-01-07T21:40:40.514Z,98665.56
2023-01-07T21:43:07.451Z,98671.28
2023-01-07T21:45:34.404Z,98672.56
2023-01-07T21:48:01.377Z,98676.28
2023-01-07T21:50:28.382Z,98668.09
2023-01-07T21:52:55.353Z,98667.69
2023-01-07T21:55:22.295Z,98669.69
2023-01-07T21:57:49.536Z,98670.78
2023-01-07T22:00:16.845Z,98668.19
2023-01-07T22:02:44.874Z,98669.41
2023-01-07T22:05:12.166Z,98663.66
2023-01-07T22:07:39.547Z,98658.69
2023-01-07T22:10:06.786Z,98668.75
2023-01-07T22:12:33.659Z,98670.75
2023-01-07T22:15:00.886Z,98663.94
2023-01-07T22:17:27.795Z,98661.63
2023-01-07T22:19:54.745Z,98653.28
2023-01-07T22:22:21.701Z,98658.00
2023-01-07T22:24:48.714Z,98642.59
2023-01-07T22:27:15.590Z,98649.63
2023-01-07T22:29:44.051Z,98646.69
2023-01-07T22:32:10.985Z,98657.84
2023-01-07T22:34:38.039Z,98647.31
2023-01-07T22:37:12.808Z,98647.41
2023-01-07T22:39:43.917Z,98648.75
2023-01-07T22:42:35.135Z,98641.19
2023-01-07T22:45:11.353Z,98647.53
2023-01-07T22:47:42.406Z,98645.69
2023-01-07T22:50:10.043Z,98642.00
2023-01-07T22:52:38.097Z,98631.09
2023-01-07T22:55:05.873Z,98633.28
2023-01-07T22:57:34.693Z,98636.88
2023-01-07T23:00:02.708Z,98628.91
2023-01-07T23:02:29.620Z,98624.38
2023-01-07T23:04:56.528Z,98623.09
2023-01-07T23:07:23.377Z,98621.22
2023-01-07T23:09:51.642Z,98622.69
2023-01-07T23:12:18.646Z,98628.13
2023-01-07T23:14:45.518Z,98620.19
2023-01-07T23:17:12.673Z,98620.81
2023-01-07T23:19:39.566Z,98616.28
2023-01-07T23:22:06.468Z,98611.25
2023-01-07T23:24:36.183Z,98616.97
2023-01-07T23:27:03.118Z,98619.47
2023-01-07T23:29:30.051Z,98625.75
2023-01-07T23:31:57.027Z,98624.66
2023-01-07T23:34:24.047Z,98616.22
2023-01-07T23:36:50.940Z,98614.97
2023-01-07T23:39:17.815Z,98617.06
2023-01-07T23:41:45.765Z,98618.72
2023-01-07T23:44:12.746Z,98618.13
2023-01-07T23:46:39.648Z,98612.31
2023-01-07T23:49:06.754Z,98617.59
2023-01-07T23:51:33.745Z,98614.19
2023-01-07T23:54:00.651Z,98611.59
2023-01-07T23:56:27.591Z,98610.25
2023-01-07T23:58:54.530Z,98614.97
